METAR stanice u blizini

 

LYBE - Beograd / Surčin, Srbija
Ažurirano: 20/06/2018 14:30
Partly Cloudy
Partly Cloudy
 Pravac vetra SSI
Vetar: SSI 7 km/h
Temperatura: 30°C
Heat Index: 31°C
Tačka rose: 18°C
Vlažnost: 49%
Pritisak: 1020 hPa
Oblaci: Partly Cloudy
Vidljivost: 10 km
Cloud details: Partly Cloudy 1372 m
2018/06/20 12:30 LYBE 201230Z 03004KT 360V070 9999 SCT045 30/18 Q1020 NOSIG
LYBT - Beograd / Batajnica, Srbija
Ažurirano: 20/06/2018 14:30
Partly Cloudy
Partly Cloudy
 Pravac vetra varies
Vetar: varies 4 km/h
Temperatura: 29°C
Heat Index: 29°C
Tačka rose: 18°C
Vlažnost: 51%
Pritisak: 1020 hPa
Oblaci: Partly Cloudy
Vidljivost: 10 km
Cloud details: Partly Cloudy 1219 m
2018/06/20 12:30 LYBT 201230Z VRB02KT 9999 SCT040 29/18 Q1020 NOSIG
LYVR - Vršac, Srbija
Ažurirano: 20/06/2018 14:30
Partly Cloudy
Partly Cloudy
 Pravac vetra SI
Vetar: SI 6 km/h
Temperatura: 29°C
Heat Index: 30°C
Tačka rose: 19°C
Vlažnost: 55%
Pritisak: 1020 hPa
Oblaci: Partly Cloudy
Vidljivost: 10 km
Cloud details: Partly Cloudy 1219 m
2018/06/20 12:30 LYVR 201230Z 05003KT 360V140 9999 SCT040 29/19 Q1020 NOSIG
 
LYKV - Lađevci, Srbija
Ažurirano: 20/06/2018 14:30
Partly Cloudy
Partly Cloudy
 Pravac vetra varies
Vetar: varies 6 km/h
Temperatura: 29°C
Heat Index: 29°C
Tačka rose: 17°C
Vlažnost: 48%
Pritisak: 1020 hPa
Oblaci: Partly Cloudy
Vidljivost: 10 km
Cloud details: Partly Cloudy 1219 m
2018/06/20 12:30 LYKV 201230Z VRB03KT 9999 SCT040 29/17 Q1020 NOSIG
LYNI - Niš, Srbija
Ažurirano: 20/06/2018 14:30
Mostly Cloudy
Mostly Cloudy
 Pravac vetra ZSZ
Vetar: ZSZ 13 km/h
Temperatura: 25°C
Tačka rose: 20°C
Vlažnost: 74%
Pritisak: 1019 hPa
Oblaci: Mostly Cloudy
Vidljivost: 10 km
Cloud details: Partly Cloudy 1006 m
Mostly Cloudy 1372 m
2018/06/20 12:30 LYNI 201230Z 30007KT 270V330 9999 SCT033 BKN045 25/20 Q1019 RETS RESHRA TEMPO TS FEW030CB BKN043
BKPR - Priština, Srbija
Ažurirano: 20/06/2018 15:00
Partly Cloudy
Partly Cloudy
 Pravac vetra SI
Vetar: SI 17 km/h
Temperatura: 27°C
Tačka rose: 11°C
Vlažnost: 37%
Pritisak: 1020 hPa
Oblaci: Partly Cloudy
Vidljivost: 10 km
Cloud details: Few Clouds 1067 m
Partly Cloudy 1219 m
2018/06/20 13:00 BKPR 201300Z 04009KT 9999 FEW035CB SCT040 27/11 Q1020 NOSIG
 
LHPP - Pecs / Pogany, Hungary
Ažurirano: 20/06/2018 14:15
Partly Cloudy
Partly Cloudy
 Pravac vetra JJZ
Vetar: JJZ 11 km/h
Temperatura: 28°C
Heat Index: 28°C
Tačka rose: 17°C
Vlažnost: 51%
Pritisak: 1021 hPa
Oblaci: Partly Cloudy
Vidljivost: 10 km
Cloud details: Partly Cloudy 1311 m
2018/06/20 12:15 LHPP 201215Z 21006KT 9999 SCT043TCU 28/17 Q1021
LHUD - Szeged, Hungary
Ažurirano: 20/06/2018 14:15
Mostly Cloudy
Mostly Cloudy
 Pravac vetra ISI
Vetar: ISI 4 km/h
Temperatura: 29°C
Heat Index: 31°C
Tačka rose: 20°C
Vlažnost: 58%
Pritisak: 1020 hPa
Oblaci: Mostly Cloudy
Vidljivost: 10 km
Cloud details: Mostly Cloudy 1311 m
2018/06/20 12:15 LHUD 201215Z 06002KT 9999 BKN043 29/20 Q1020
LRTR - Timisoara, Romania
Ažurirano: 20/06/2018 14:30
Few Clouds
Few Clouds
 Pravac vetra J
Vetar: J 7 km/h
Temperatura: 30°C
Heat Index: 32°C
Tačka rose: 20°C
Vlažnost: 55%
Pritisak: 1019 hPa
Oblaci: Few Clouds
Vidljivost: 10 km
Cloud details: Few Clouds 1372 m
2018/06/20 12:30 LRTR 201230Z 17004KT 130V220 9999 FEW045 30/20 Q1019 NOSIG
 
LRCV - Craiova, Romania
Ažurirano: 20/06/2018 14:30
Vedro
Vedro
 Pravac vetra ZSZ
Vetar: ZSZ 7 km/h
Temperatura: 30°C
Tačka rose: 14°C
Vlažnost: 38%
Pritisak: 1019 hPa
Pregled: Vedro
Vidljivost: greater than 10 km
2018/06/20 12:30 LRCV 201230Z 29004KT 230V330 CAVOK 30/14 Q1019
LBSF - Sofia, Bulgaria
Ažurirano: 20/06/2018 14:30
Partly Cloudy
Partly Cloudy
 Pravac vetra SI
Vetar: SI 20 km/h
Temperatura: 27°C
Tačka rose: 12°C
Vlažnost: 39%
Pritisak: 1020 hPa
Oblaci: Partly Cloudy
Vidljivost: 10 km
Cloud details: Partly Cloudy 2103 m
2018/06/20 12:30 LBSF 201230Z 05011KT 020V080 9999 SCT069 27/12 Q1020 NOSIG
LWSK - Skoplje, Makedonija
Ažurirano: 20/06/2018 14:30
Partly Cloudy
Partly Cloudy
 Pravac vetra ZJZ
Vetar: ZJZ 17 km/h
Temperatura: 28°C
Heat Index: 28°C
Tačka rose: 17°C
Vlažnost: 51%
Pritisak: 1018 hPa
Oblaci: Partly Cloudy
Vidljivost: 10 km
Cloud details: Partly Cloudy 1219 m
2018/06/20 12:30 LWSK 201230Z 25009KT 200V280 9999 SCT040 28/17 Q1018 NOSIG
 
LYPG - Podgorica, Crna Gora
Ažurirano: 20/06/2018 14:30
Few Clouds
Few Clouds
 Pravac vetra JJZ
Vetar: JJZ 13 km/h
Temperatura: 31°C
Tačka rose: 14°C
Vlažnost: 35%
Pritisak: 1017 hPa
Oblaci: Few Clouds
Vidljivost: 10 km
Cloud details: Few Clouds 1219 m
2018/06/20 12:30 LYPG 201230Z 21007KT 160V240 9999 FEW040 31/14 Q1017 NOSIG
LQSA - Sarajevo, Bosna i Hercegovina
Ažurirano: 20/06/2018 14:30
Few Clouds
Few Clouds
 Pravac vetra JJI
Vetar: JJI 13 km/h
Temperatura: 28°C
Heat Index: 28°C
Tačka rose: 14°C
Vlažnost: 42%
Pritisak: 1021 hPa
Oblaci: Few Clouds
Vidljivost: 10 km
Cloud details: Few Clouds 1524 m
2018/06/20 12:30 LQSA 201230Z 16007KT 110V200 9999 FEW050 28/14 Q1021 NOSIG
LDOS - Osijek, Hrvatksa
Ažurirano: 20/06/2018 14:30
Few Clouds
Few Clouds
 Pravac vetra varies
Vetar: varies 4 km/h
Temperatura: 30°C
Heat Index: 31°C
Tačka rose: 18°C
Vlažnost: 49%
Pritisak: 1020 hPa
Oblaci: Few Clouds
Vidljivost: 10 km
Cloud details: Few Clouds 1372 m
2018/06/20 12:30 LDOS 201230Z VRB02KT 9999 FEW045 30/18 Q1020